createdAt,value
2023-05-09T00:02:59.557Z,16.34
2023-05-09T00:31:15.677Z,16.23
2023-05-09T00:59:31.889Z,16.26
2023-05-09T01:27:47.496Z,16.27
2023-05-09T01:56:02.140Z,16.23
2023-05-09T02:24:22.234Z,16.09
2023-05-09T02:52:38.342Z,15.82
2023-05-09T03:21:03.743Z,15.92
2023-05-09T03:49:32.101Z,16.29
2023-05-09T04:17:54.906Z,16.28
2023-05-09T04:46:09.286Z,16.15
2023-05-09T05:14:27.217Z,16.25
2023-05-09T05:42:43.246Z,16.02
2023-05-09T06:11:05.117Z,16.06
2023-05-09T06:39:29.401Z,17.48
2023-05-09T07:08:17.388Z,20.78
2023-05-09T07:36:40.268Z,18.33
2023-05-09T08:05:21.522Z,22.2
2023-05-09T08:34:03.454Z,22.27
2023-05-09T09:02:30.508Z,21.26
2023-05-09T09:30:38.240Z,19.51
2023-05-09T09:58:56.778Z,19.3
2023-05-09T10:27:24.660Z,20.07
2023-05-09T10:56:21.517Z,21.16
2023-05-09T11:25:02.432Z,21.9
2023-05-09T11:53:35.583Z,22.44
2023-05-09T12:22:20.981Z,22.07
2023-05-09T12:51:27.560Z,22.89
2023-05-09T13:20:06.849Z,22.63
2023-05-09T13:48:55.230Z,22.39
2023-05-09T14:17:39.195Z,22.53
2023-05-09T14:46:16.855Z,21.87
2023-05-09T15:15:01.086Z,21.35
2023-05-09T15:43:49.072Z,19.77
2023-05-09T16:12:30.848Z,18.14
2023-05-09T16:41:17.651Z,17.4
2023-05-09T17:10:11.195Z,16.91
2023-05-09T17:39:07.977Z,16.76
2023-05-09T18:07:51.160Z,16.18
2023-05-09T18:36:46.369Z,15.94
2023-05-09T19:05:35.833Z,15.73
2023-05-09T19:34:26.144Z,15.55
2023-05-09T20:03:15.734Z,15.29
2023-05-09T20:32:03.682Z,15.09
2023-05-09T21:01:03.177Z,14.98
2023-05-09T21:29:57.213Z,14.85
2023-05-09T21:58:55.857Z,14.73
2023-05-09T22:28:02.076Z,14.48
2023-05-09T22:57:14.648Z,14.69
2023-05-09T23:26:16.175Z,14.6
2023-05-09T23:55:15.097Z,14.35
